Time;durP1;ratioP1;P1;durP2;ratioP2;P2;SDS_P1;SDS_P2;PMS_P1;PMS_P2;Temp;Humidity;BMP_temperature;BMP_pressure;BME280_temperature;BME280_humidity;BME280_pressure;Samples;Min_cycle;Max_cycle;Signal;HPM_P1;HPM_P2
2023/06/26 00:02:20;;;;;;;9.68;6.82;;;;;;;23.18;84.98;96192.63;5078894;28;20024;-88
2023/06/26 00:04:47;;;;;;;12.20;7.03;;;;;;;22.88;87.33;96197.38;5115012;28;20023;-88
2023/06/26 00:07:12;;;;;;;9.20;6.38;;;;;;;23.09;85.84;96201.28;5100168;28;20023;-88
2023/06/26 00:09:38;;;;;;;9.55;6.72;;;;;;;23.10;85.59;96194.88;5116803;28;20030;-87
2023/06/26 00:12:04;;;;;;;8.63;6.38;;;;;;;23.02;85.25;96196.06;5089092;28;20393;-88
2023/06/26 00:14:30;;;;;;;9.75;6.60;;;;;;;23.12;85.15;96200.81;5076135;28;20026;-88
2023/06/26 00:16:55;;;;;;;9.30;6.82;;;;;;;22.95;85.62;96195.41;5092802;28;20393;-88
2023/06/26 00:19:21;;;;;;;9.30;6.35;;;;;;;22.89;86.56;96197.13;5075637;28;20020;-87
2023/06/26 00:21:47;;;;;;;8.93;6.95;;;;;;;23.07;85.57;96193.47;5096213;28;20023;-88
2023/06/26 00:27:52;;;;;;;10.70;6.65;;;;;;;22.91;84.43;96189.66;5113645;28;20435;-88
2023/06/26 00:30:17;;;;;;;10.75;6.95;;;;;;;22.97;83.07;96195.97;5079041;28;20020;-88
2023/06/26 00:32:43;;;;;;;11.00;7.10;;;;;;;23.14;81.41;96196.84;5079132;28;20024;-87
2023/06/26 00:35:08;;;;;;;11.60;7.07;;;;;;;23.13;82.08;96192.53;5079493;28;20027;-88
2023/06/26 00:37:35;;;;;;;9.25;6.90;;;;;;;23.16;81.60;96193.91;5113005;28;20073;-87
2023/06/26 00:40:01;;;;;;;9.93;7.90;;;;;;;23.08;82.25;96197.00;5069874;28;20020;-88
2023/06/26 00:42:28;;;;;;;9.25;6.45;;;;;;;23.10;82.41;96195.69;5077428;28;20485;-88
2023/06/26 00:44:54;;;;;;;10.60;7.65;;;;;;;23.32;81.60;96178.94;5062566;28;20020;-87
2023/06/26 00:47:19;;;;;;;10.20;7.07;;;;;;;23.19;82.13;96194.25;5101040;28;20023;-88
2023/06/26 00:49:45;;;;;;;10.13;6.90;;;;;;;23.22;82.75;96195.66;5083925;28;20093;-88
2023/06/26 00:52:10;;;;;;;10.40;7.10;;;;;;;23.04;83.73;96191.28;5086374;28;20485;-88
2023/06/26 00:54:42;;;;;;;10.10;6.68;;;;;;;23.23;83.03;96197.25;5112928;28;20058;-87
2023/06/26 00:57:09;;;;;;;10.30;7.32;;;;;;;23.37;82.43;96197.78;5078362;28;20428;-88
2023/06/26 00:59:35;;;;;;;10.65;7.00;;;;;;;23.16;83.64;96201.97;5082572;28;20016;-88
2023/06/26 01:02:01;;;;;;;10.10;7.45;;;;;;;23.16;84.28;96204.66;5100165;28;20028;-87
2023/06/26 01:04:27;;;;;;;9.20;6.95;;;;;;;23.45;82.87;96202.78;5084188;28;20016;-88
2023/06/26 01:06:54;;;;;;;9.20;6.50;;;;;;;23.27;83.82;96201.09;5083890;28;20024;-88
2023/06/26 01:09:20;;;;;;;10.57;7.32;;;;;;;23.56;81.98;96198.41;5098929;28;20102;-88
2023/06/26 01:11:46;;;;;;;9.70;7.20;;;;;;;23.55;82.78;96194.91;5081999;28;20027;-88
2023/06/26 01:14:12;;;;;;;8.73;6.10;;;;;;;23.66;82.51;96195.88;5099043;28;20026;-88
2023/06/26 01:16:49;;;;;;;9.48;6.80;;;;;;;23.76;80.89;96191.53;5099023;28;20020;-88
2023/06/26 01:19:26;;;;;;;10.63;7.38;;;;;;;23.64;81.61;96188.09;5080912;28;20081;-89
2023/06/26 01:22:02;;;;;;;9.40;6.65;;;;;;;23.65;82.29;96187.03;5118700;27;20030;-88
2023/06/26 01:24:33;;;;;;;9.60;7.13;;;;;;;23.61;83.53;96179.69;5102368;27;20025;-88
2023/06/26 01:27:00;;;;;;;10.35;6.97;;;;;;;23.45;83.99;96178.63;5102278;27;20037;-88
2023/06/26 01:29:29;;;;;;;9.38;7.28;;;;;;;23.29;85.93;96182.91;5115645;28;20027;-88
2023/06/26 01:31:55;;;;;;;9.07;6.40;;;;;;;23.27;86.49;96172.41;5116746;27;20135;-87
2023/06/26 01:34:33;;;;;;;10.23;6.47;;;;;;;23.13;87.12;96168.38;5121804;27;20039;-88
2023/06/26 01:36:59;;;;;;;10.07;6.57;;;;;;;23.23;86.97;96168.56;5078329;28;20422;-88
2023/06/26 01:39:25;;;;;;;11.32;7.45;;;;;;;23.38;86.54;96172.59;5078716;28;20032;-88
2023/06/26 01:41:50;;;;;;;10.35;7.75;;;;;;;23.20;87.99;96173.59;5094106;28;20057;-88
2023/06/26 01:44:34;;;;;;;10.90;7.43;;;;;;;23.25;87.29;96166.47;5122782;28;20016;-88
2023/06/26 01:47:05;;;;;;;10.00;7.03;;;;;;;23.38;86.55;96161.88;5117136;28;20012;-87
2023/06/26 01:50:14;;;;;;;11.10;7.40;;;;;;;23.39;87.35;96161.59;5106628;28;20081;-88
2023/06/26 01:53:08;;;;;;;10.88;7.80;;;;;;;23.38;86.87;96161.88;5077651;28;20502;-88
2023/06/26 01:55:51;;;;;;;11.82;7.55;;;;;;;23.33;87.02;96153.72;5067355;28;20044;-88
2023/06/26 01:58:22;;;;;;;11.20;7.50;;;;;;;23.16;88.58;96157.16;5081518;28;20027;-88
2023/06/26 02:00:48;;;;;;;9.93;6.80;;;;;;;23.14;90.06;96156.63;5081153;28;20122;-88
2023/06/26 02:03:14;;;;;;;9.77;7.15;;;;;;;23.27;88.69;96153.63;5098372;28;20144;-88
2023/06/26 02:05:39;;;;;;;11.10;6.82;;;;;;;23.32;87.82;96160.13;5081654;28;20555;-88
2023/06/26 02:08:14;;;;;;;10.90;7.10;;;;;;;23.43;87.32;96169.97;5097988;28;20023;-88
2023/06/26 02:10:47;;;;;;;10.10;6.95;;;;;;;23.29;88.66;96166.78;5099621;28;20087;-88
2023/06/26 02:13:15;;;;;;;11.88;7.50;;;;;;;23.23;87.78;96162.38;5081524;28;20023;-88
2023/06/26 02:15:41;;;;;;;10.85;7.43;;;;;;;23.34;86.60;96164.22;5097819;28;20046;-88
2023/06/26 02:18:07;;;;;;;9.50;7.10;;;;;;;23.55;85.56;96161.88;5098018;28;20019;-88
2023/06/26 02:20:33;;;;;;;9.77;7.30;;;;;;;23.65;84.03;96160.16;5080856;28;20027;-88
2023/06/26 02:22:59;;;;;;;12.27;7.57;;;;;;;23.49;84.64;96160.97;5097742;28;20088;-88
2023/06/26 02:25:54;;;;;;;10.82;7.20;;;;;;;23.43;86.19;96152.00;5080942;28;20023;-89
2023/06/26 02:28:19;;;;;;;12.52;7.10;;;;;;;23.02;87.85;96163.88;5080389;28;20027;-88
2023/06/26 02:30:45;;;;;;;11.75;8.05;;;;;;;23.00;87.57;96163.31;5080425;28;20020;-88
2023/06/26 02:33:16;;;;;;;11.15;7.63;;;;;;;23.00;87.47;96163.31;5082210;28;20019;-88
2023/06/26 02:35:42;;;;;;;11.43;7.22;;;;;;;22.97;87.95;96158.41;5081780;27;20032;-89
2023/06/26 02:38:10;;;;;;;11.27;7.28;;;;;;;23.16;86.41;96151.81;5079318;28;20020;-89
2023/06/26 02:40:36;;;;;;;9.98;7.32;;;;;;;23.07;87.23;96153.25;5091065;28;20015;-88
2023/06/26 02:43:02;;;;;;;10.23;7.63;;;;;;;23.03;87.15;96154.78;5091431;28;20038;-89
2023/06/26 02:45:27;;;;;;;10.05;7.63;;;;;;;22.96;86.29;96156.78;5088294;27;20015;-88
2023/06/26 02:48:18;;;;;;;9.77;6.70;;;;;;;22.98;86.83;96154.69;5099312;28;20088;-88
2023/06/26 02:50:46;;;;;;;9.35;7.05;;;;;;;23.15;85.48;96152.06;5101927;27;20469;-89
2023/06/26 02:53:13;;;;;;;9.93;7.22;;;;;;;23.24;85.14;96156.78;5082653;28;20099;-88
2023/06/26 02:55:41;;;;;;;11.05;7.22;;;;;;;23.35;84.25;96159.66;5099908;28;20034;-88
2023/06/26 02:58:07;;;;;;;10.73;7.05;;;;;;;23.29;83.86;96153.38;5099871;28;20031;-88
2023/06/26 03:00:34;;;;;;;9.25;6.57;;;;;;;23.33;83.67;96151.84;5099986;28;20020;-88
2023/06/26 03:03:03;;;;;;;11.50;7.03;;;;;;;23.13;85.22;96154.97;5083546;28;20031;-88
2023/06/26 03:05:34;;;;;;;9.70;7.10;;;;;;;22.98;85.88;96160.88;5081974;28;20031;-88
2023/06/26 03:08:00;;;;;;;10.30;7.28;;;;;;;23.06;85.97;96146.25;5088919;28;20027;-88
2023/06/26 03:10:26;;;;;;;10.50;7.45;;;;;;;22.82;86.86;96149.00;5110967;28;20028;-87
2023/06/26 03:12:52;;;;;;;10.18;6.70;;;;;;;22.83;87.01;96147.94;5070476;28;20027;-89
2023/06/26 03:15:19;;;;;;;8.77;6.80;;;;;;;23.02;85.80;96145.91;5061385;28;20016;-88
2023/06/26 03:17:45;;;;;;;12.02;8.55;;;;;;;22.95;87.59;96139.91;5078277;28;20056;-89
2023/06/26 03:20:15;;;;;;;13.63;7.70;;;;;;;23.10;85.46;96142.03;5064971;28;20020;-89
2023/06/26 03:22:59;;;;;;;10.00;6.82;;;;;;;23.28;86.09;96139.16;5077859;28;20020;-89
2023/06/26 03:25:24;;;;;;;9.98;7.03;;;;;;;23.11;86.57;96132.94;5078248;28;20008;-89
2023/06/26 03:27:58;;;;;;;10.38;7.50;;;;;;;23.24;86.43;96139.88;5085300;28;20388;-89
2023/06/26 03:30:25;;;;;;;9.25;7.30;;;;;;;23.31;86.40;96135.19;5104423;28;20023;-89
2023/06/26 03:32:51;;;;;;;10.27;7.35;;;;;;;23.34;85.42;96142.75;5067015;28;20028;-88
2023/06/26 03:35:18;;;;;;;10.48;7.32;;;;;;;23.42;86.24;96138.84;5083020;28;20038;-89
2023/06/26 03:37:43;;;;;;;9.77;7.03;;;;;;;23.28;85.40;96144.53;5080461;28;20035;-89
2023/06/26 03:40:09;;;;;;;10.90;7.18;;;;;;;23.10;86.77;96142.03;5101504;28;20049;-89
2023/06/26 03:42:36;;;;;;;10.20;7.05;;;;;;;22.98;87.88;96138.59;5099639;28;20058;-89
2023/06/26 03:45:02;;;;;;;10.10;6.70;;;;;;;23.05;87.62;96141.94;5083678;28;20019;-88
2023/06/26 03:47:31;;;;;;;9.77;7.07;;;;;;;23.05;87.32;96140.06;5092091;28;20031;-89
2023/06/26 03:49:57;;;;;;;10.02;7.32;;;;;;;23.27;86.09;96144.75;5104274;28;20007;-85
2023/06/26 03:52:23;;;;;;;12.80;7.72;;;;;;;23.40;85.45;96144.44;5104602;28;20103;-89
2023/06/26 03:54:49;;;;;;;9.38;6.95;;;;;;;23.32;85.09;96138.66;5118625;28;20035;-88
2023/06/26 03:57:16;;;;;;;10.50;8.07;;;;;;;23.43;86.62;96148.50;5084939;28;20150;-89
2023/06/26 03:59:41;;;;;;;10.00;7.47;;;;;;;23.60;85.35;96135.91;5083287;28;20063;-89
2023/06/26 04:02:07;;;;;;;12.57;7.88;;;;;;;23.47;85.46;96139.75;5082842;28;20026;-89
2023/06/26 04:04:33;;;;;;;8.98;6.40;;;;;;;23.44;86.17;96137.56;5116747;28;20045;-89
2023/06/26 04:07:02;;;;;;;12.85;9.63;;;;;;;23.59;85.58;96145.03;5096722;28;20059;-85
2023/06/26 04:09:28;;;;;;;17.90;14.43;;;;;;;23.80;91.20;96148.88;5096008;28;20079;-90
2023/06/26 04:11:54;;;;;;;46.70;36.28;;;;;;;24.15;85.17;96147.81;5079759;28;20099;-89
2023/06/26 04:14:24;;;;;;;13.07;9.88;;;;;;;24.04;82.88;96149.50;5082126;28;20684;-89
2023/06/26 04:16:51;;;;;;;15.73;7.35;;;;;;;23.95;82.76;96153.69;5086740;28;20096;-89
2023/06/26 04:19:35;;;;;;;10.32;7.20;;;;;;;24.07;81.54;96149.00;5089425;28;20080;-89
2023/06/26 04:22:01;;;;;;;11.30;7.75;;;;;;;24.13;82.14;96149.91;5087376;28;20027;-89
2023/06/26 04:24:27;;;;;;;11.05;7.65;;;;;;;24.22;81.86;96154.63;5085689;28;20050;-89
2023/06/26 04:26:52;;;;;;;12.45;7.40;;;;;;;24.10;82.63;96155.78;5093377;28;20109;-89
2023/06/26 04:29:18;;;;;;;12.63;7.20;;;;;;;24.09;82.52;96146.91;5093015;27;20348;-89
2023/06/26 04:31:46;;;;;;;10.60;6.78;;;;;;;24.27;81.86;96161.94;5092014;28;20032;-89
2023/06/26 04:34:13;;;;;;;8.80;6.68;;;;;;;24.35;81.38;96155.34;5083821;28;20114;-89
2023/06/26 04:36:39;;;;;;;14.35;7.78;;;;;;;24.51;80.13;96161.75;5078594;28;20055;-89
2023/06/26 04:39:06;;;;;;;9.73;7.32;;;;;;;24.69;79.91;96158.75;5070908;28;20031;-89
2023/06/26 04:41:31;;;;;;;10.50;7.45;;;;;;;24.65;78.72;96153.06;5082842;28;20069;-90
2023/06/26 04:43:57;;;;;;;13.32;7.40;;;;;;;24.70;80.42;96153.13;5091463;28;20027;-89
2023/06/26 04:46:22;;;;;;;12.77;7.07;;;;;;;24.81;80.23;96150.53;5086639;28;20023;-89
2023/06/26 04:48:48;;;;;;;9.63;7.15;;;;;;;24.85;79.87;96151.69;5083814;28;20661;-89
2023/06/26 04:51:20;;;;;;;11.63;7.10;;;;;;;24.80;83.61;96152.44;5092824;28;20160;-89
2023/06/26 04:53:46;;;;;;;8.02;6.32;;;;;;;24.90;81.76;96155.22;5072811;28;20059;-88
2023/06/26 04:56:11;;;;;;;9.13;6.47;;;;;;;24.96;83.15;96156.13;5087057;27;20027;-88
2023/06/26 04:58:38;;;;;;;10.00;7.00;;;;;;;25.08;82.93;96155.94;5086778;27;20375;-87
2023/06/26 05:01:06;;;;;;;10.50;7.40;;;;;;;24.83;82.87;96153.81;5085875;28;20035;-87
2023/06/26 05:03:32;;;;;;;9.75;6.65;;;;;;;25.20;81.95;96145.91;5080781;28;20020;-87
2023/06/26 05:05:58;;;;;;;12.70;7.47;;;;;;;25.21;81.59;96155.59;5097848;28;20567;-80
2023/06/26 05:08:26;;;;;;;16.10;7.78;;;;;;;25.32;83.68;96145.75;5100379;28;20031;-84
2023/06/26 05:10:57;;;;;;;11.40;7.60;;;;;;;25.32;82.82;96140.38;5091063;28;20088;-77
2023/06/26 05:13:32;;;;;;;12.60;7.00;;;;;;;25.55;81.95;96141.91;5114696;28;20493;-78
2023/06/26 05:15:58;;;;;;;25.65;19.98;;;;;;;26.15;78.70;96146.16;5081892;28;20031;-77
2023/06/26 05:18:23;;;;;;;10.70;7.55;;;;;;;26.01;81.14;96148.47;5073489;28;20084;-80
2023/06/26 05:20:49;;;;;;;20.50;10.00;;;;;;;26.23;78.69;96144.88;5091052;27;20063;-79
2023/06/26 05:23:16;;;;;;;53.90;11.77;;;;;;;26.24;76.09;96146.47;5094976;28;20027;-77
2023/06/26 05:25:42;;;;;;;35.65;9.65;;;;;;;26.36;73.84;96144.41;5106846;28;20027;-77
2023/06/26 05:28:10;;;;;;;12.48;7.45;;;;;;;26.42;74.20;96147.91;5074078;28;20030;-78
2023/06/26 05:30:36;;;;;;;10.95;7.82;;;;;;;26.27;76.05;96151.34;5075600;28;20032;-81
2023/06/26 05:33:03;;;;;;;40.05;8.57;;;;;;;26.30;77.02;96150.84;5087542;28;20024;-82
2023/06/26 05:35:30;;;;;;;14.82;7.72;;;;;;;26.50;76.23;96150.97;5106120;28;20027;-82
2023/06/26 05:37:58;;;;;;;9.70;6.90;;;;;;;26.56;76.09;96146.41;5078781;28;20370;-82
2023/06/26 05:40:24;;;;;;;13.77;8.13;;;;;;;27.01;75.22;96150.34;5077548;28;20023;-81
2023/06/26 05:42:50;;;;;;;12.20;7.82;;;;;;;27.22;69.58;96143.13;5077278;28;20031;-81
2023/06/26 05:45:16;;;;;;;13.30;8.38;;;;;;;27.15;69.89;96146.09;5077301;28;20024;-80
2023/06/26 05:47:42;;;;;;;15.52;7.95;;;;;;;27.48;68.48;96142.09;5089943;28;20075;-80
2023/06/26 05:50:09;;;;;;;14.38;8.35;;;;;;;27.78;67.75;96135.13;5089163;27;20033;-80
2023/06/26 05:52:35;;;;;;;10.02;7.25;;;;;;;27.62;67.87;96141.56;5090491;28;20073;-80
2023/06/26 05:55:05;;;;;;;9.65;6.78;;;;;;;28.29;64.10;96131.53;5085365;28;20036;-82
2023/06/26 05:57:31;;;;;;;23.25;9.25;;;;;;;28.01;65.17;96151.88;5077234;28;20082;-77
2023/06/26 05:59:57;;;;;;;16.60;8.82;;;;;;;28.61;62.90;96140.13;5126855;27;20031;-77
2023/06/26 06:02:23;;;;;;;14.77;8.05;;;;;;;29.29;62.36;96138.72;5094476;28;20059;-76
2023/06/26 06:04:48;;;;;;;21.77;9.13;;;;;;;29.24;59.66;96131.44;5122538;27;20038;-77
2023/06/26 06:07:14;;;;;;;36.33;9.73;;;;;;;29.71;59.76;96138.19;5095327;28;20065;-76
2023/06/26 06:09:39;;;;;;;19.67;9.60;;;;;;;29.59;59.90;96137.69;5073701;28;20362;-76
2023/06/26 06:12:06;;;;;;;20.17;12.02;;;;;;;29.89;56.55;96133.97;5089064;28;20057;-78
2023/06/26 06:14:32;;;;;;;20.45;8.68;;;;;;;30.16;51.21;96132.63;5078514;28;20028;-79
2023/06/26 06:16:58;;;;;;;52.45;24.25;;;;;;;30.02;48.61;96132.50;5080007;28;20015;-84
2023/06/26 06:19:24;;;;;;;27.40;9.93;;;;;;;29.98;49.37;96140.38;5078355;28;20016;-81
2023/06/26 06:21:50;;;;;;;13.13;8.32;;;;;;;29.72;50.54;96142.50;5102479;28;20028;-79
2023/06/26 06:24:16;;;;;;;13.32;7.57;;;;;;;29.72;51.99;96142.50;5086196;28;20015;-80
2023/06/26 06:26:41;;;;;;;37.65;10.10;;;;;;;30.77;51.19;96146.38;5076411;28;20653;-79
2023/06/26 06:29:07;;;;;;;10.20;7.15;;;;;;;30.62;52.78;96138.38;5102601;27;20030;-84
2023/06/26 06:31:33;;;;;;;19.42;7.75;;;;;;;30.75;50.94;96145.84;5086498;28;20019;-86
2023/06/26 06:33:58;;;;;;;13.63;7.80;;;;;;;30.32;54.55;96136.81;5080453;27;20011;-84
2023/06/26 06:36:24;;;;;;;20.67;7.72;;;;;;;30.45;52.01;96133.44;5076999;28;20027;-83
2023/06/26 06:38:49;;;;;;;15.60;8.02;;;;;;;30.88;54.20;96141.59;5065051;28;20043;-83
2023/06/26 06:41:16;;;;;;;9.20;6.95;;;;;;;30.97;53.08;96139.06;5093188;28;20489;-83
2023/06/26 06:43:42;;;;;;;11.98;7.95;;;;;;;30.78;50.84;96144.44;5093557;28;20389;-82
2023/06/26 06:46:08;;;;;;;11.85;6.95;;;;;;;31.87;48.53;96134.50;5089762;28;20020;-82
2023/06/26 06:48:34;;;;;;;12.23;7.25;;;;;;;31.93;47.40;96138.78;5100789;28;20026;-83
2023/06/26 06:50:59;;;;;;;10.20;6.97;;;;;;;32.62;45.68;96138.88;5119270;27;20023;-83
2023/06/26 06:53:25;;;;;;;9.02;6.95;;;;;;;32.55;47.21;96144.72;5098254;28;20030;-83
2023/06/26 06:55:50;;;;;;;18.13;8.20;;;;;;;32.93;44.18;96146.41;5093246;28;20027;-83
2023/06/26 06:58:18;;;;;;;22.00;16.02;;;;;;;32.44;45.04;96142.53;5098314;28;20023;-81
2023/06/26 07:00:44;;;;;;;21.80;17.05;;;;;;;32.79;44.48;96138.25;5084160;28;20019;-80
2023/06/26 07:03:10;;;;;;;9.93;6.63;;;;;;;32.97;42.18;96145.56;5095784;27;20037;-82
2023/06/26 07:05:36;;;;;;;11.95;7.22;;;;;;;32.86;42.29;96139.50;5078171;28;20160;-82
2023/06/26 07:08:02;;;;;;;20.45;7.75;;;;;;;33.26;41.03;96141.66;5111375;28;20099;-82
2023/06/26 07:10:28;;;;;;;41.05;14.88;;;;;;;33.38;44.63;96146.56;5090987;28;20037;-84
2023/06/26 07:12:54;;;;;;;70.60;20.40;;;;;;;33.23;44.72;96142.25;5072547;28;20030;-83
2023/06/26 07:15:20;;;;;;;81.65;27.13;;;;;;;33.03;42.42;96144.34;5079281;28;20019;-82
2023/06/26 07:17:45;;;;;;;26.05;11.15;;;;;;;33.73;42.29;96134.03;5092687;28;20027;-84
2023/06/26 07:20:15;;;;;;;20.88;11.02;;;;;;;33.64;41.00;96149.56;5080128;27;20026;-84
2023/06/26 07:22:41;;;;;;;34.97;14.32;;;;;;;33.91;40.23;96137.69;5095218;28;20110;-82
2023/06/26 07:25:10;;;;;;;364.20;112.45;;;;;;;34.85;39.25;96147.50;5095521;28;20012;-86
2023/06/26 07:27:39;;;;;;;44.22;18.63;;;;;;;34.22;39.40;96145.94;5090358;28;20089;-83
2023/06/26 07:30:08;;;;;;;248.73;51.17;;;;;;;35.10;39.23;96143.22;5130131;27;20026;-89
2023/06/26 07:32:34;;;;;;;89.53;22.98;;;;;;;35.23;38.28;96143.44;5076612;28;20015;-87
2023/06/26 07:35:00;;;;;;;184.60;40.95;;;;;;;34.73;39.08;96147.28;5085544;28;20030;-90
2023/06/26 07:37:25;;;;;;;109.10;29.55;;;;;;;35.07;37.38;96151.28;5084219;28;20032;-85
2023/06/26 07:39:51;;;;;;;45.17;14.30;;;;;;;35.84;35.37;96145.03;5102129;28;20419;-84
2023/06/26 07:42:16;;;;;;;31.75;12.10;;;;;;;35.32;36.70;96152.44;5110480;28;20046;-84
2023/06/26 07:44:43;;;;;;;140.63;30.90;;;;;;;36.31;35.96;96147.06;5074952;28;20023;-86
2023/06/26 07:47:08;;;;;;;55.78;18.17;;;;;;;36.21;34.83;96142.75;5101250;28;20023;-82
2023/06/26 07:49:34;;;;;;;172.00;45.13;;;;;;;36.53;34.61;96144.13;5091483;28;20020;-87
2023/06/26 07:51:59;;;;;;;67.93;20.45;;;;;;;36.55;32.80;96146.53;5094072;28;20040;-85
2023/06/26 07:54:25;;;;;;;181.73;44.70;;;;;;;36.72;33.90;96146.47;5089120;28;20081;-88
2023/06/26 07:56:58;;;;;;;28.55;10.82;;;;;;;36.18;33.42;96137.91;5077934;28;20695;-86
2023/06/26 07:59:25;;;;;;;128.73;33.10;;;;;;;37.28;32.03;96140.81;5109164;28;20066;-85
2023/06/26 08:01:52;;;;;;;265.75;65.38;;;;;;;37.59;32.23;96151.41;5111359;28;20143;-81
2023/06/26 08:04:23;;;;;;;220.13;52.38;;;;;;;36.60;32.75;96143.63;5097632;28;20506;-83
2023/06/26 08:06:50;;;;;;;311.13;74.72;;;;;;;37.09;32.47;96143.22;5079418;28;20093;-83
2023/06/26 08:09:18;;;;;;;46.08;15.48;;;;;;;36.98;32.05;96142.78;5092974;28;20030;-83
2023/06/26 08:11:44;;;;;;;34.33;11.85;;;;;;;37.53;31.42;96158.28;5090965;28;20027;-84
2023/06/26 08:14:14;;;;;;;104.38;28.70;;;;;;;37.80;30.30;96136.91;5075802;28;20027;-85
2023/06/26 08:16:41;;;;;;;148.98;37.30;;;;;;;38.28;30.03;96144.50;5092341;28;20024;-85
2023/06/26 08:19:07;;;;;;;307.13;75.15;;;;;;;39.04;29.15;96140.34;5060942;28;20035;-85
2023/06/26 08:21:33;;;;;;;127.18;35.05;;;;;;;38.95;28.11;96145.16;5091638;28;20024;-87
2023/06/26 08:23:59;;;;;;;56.45;17.70;;;;;;;39.82;27.60;96138.38;5089556;28;20118;-87
2023/06/26 08:26:24;;;;;;;79.20;19.42;;;;;;;38.99;29.19;96143.31;5092379;28;20019;-84
2023/06/26 08:28:50;;;;;;;270.00;65.25;;;;;;;38.71;28.40;96134.16;5082833;28;20072;-81
2023/06/26 08:31:16;;;;;;;25.48;11.25;;;;;;;38.52;28.15;96135.50;5090704;28;20023;-83
2023/06/26 08:33:42;;;;;;;68.35;19.98;;;;;;;39.29;27.59;96132.09;5082226;28;20115;-83
2023/06/26 08:36:07;;;;;;;299.40;70.35;;;;;;;38.41;28.31;96128.88;5094589;28;20022;-89
2023/06/26 08:38:33;;;;;;;195.15;46.55;;;;;;;39.06;29.62;96127.03;5093694;28;20076;-85
2023/06/26 08:40:59;;;;;;;237.90;54.30;;;;;;;39.21;28.23;96133.00;5093614;28;20028;-81
2023/06/26 08:43:26;;;;;;;235.23;57.90;;;;;;;38.74;28.54;96131.53;5092289;28;20051;-84
2023/06/26 08:45:53;;;;;;;105.60;27.17;;;;;;;38.83;28.87;96125.91;5091317;28;20035;-83
2023/06/26 08:48:21;;;;;;;109.60;25.95;;;;;;;38.72;28.66;96127.50;5092273;28;20384;-80
2023/06/26 08:50:49;;;;;;;77.53;25.77;;;;;;;39.09;28.52;96128.31;5080620;28;20020;-81
2023/06/26 08:53:33;;;;;;;153.48;35.47;;;;;;;38.49;28.08;96119.69;5076225;28;20032;-82
2023/06/26 08:56:00;;;;;;;180.30;47.78;;;;;;;38.35;29.30;96130.19;5076089;28;20040;-85
2023/06/26 08:58:26;;;;;;;100.25;27.73;;;;;;;38.46;29.35;96122.34;5087567;28;20118;-84
2023/06/26 09:00:52;;;;;;;94.30;28.67;;;;;;;39.77;27.50;96120.13;5075226;28;20023;-86
2023/06/26 09:03:18;;;;;;;61.63;16.42;;;;;;;38.19;28.89;96119.06;5072161;28;20488;-86
2023/06/26 09:05:44;;;;;;;66.90;17.40;;;;;;;39.20;28.56;96128.63;5078872;28;20097;-85
2023/06/26 09:08:09;;;;;;;105.15;27.83;;;;;;;39.62;27.68;96122.81;5079619;28;20031;-86
2023/06/26 09:10:54;;;;;;;44.72;15.38;;;;;;;37.60;30.18;96119.31;5095726;28;20020;-86
2023/06/26 09:13:19;;;;;;;117.68;15.45;;;;;;;37.65;30.38;96128.13;5080085;28;20106;-86
2023/06/26 09:15:46;;;;;;;87.45;17.10;;;;;;;37.84;29.72;96132.34;5095000;28;20023;-85
2023/06/26 09:18:13;;;;;;;92.95;23.13;;;;;;;38.43;28.63;96119.16;5088504;28;20026;-84
2023/06/26 09:20:38;;;;;;;42.15;11.93;;;;;;;38.38;28.90;96121.31;5095580;27;20404;-83
2023/06/26 09:23:05;;;;;;;56.15;18.20;;;;;;;38.33;32.50;96121.47;5083888;28;20097;-84
2023/06/26 09:25:31;;;;;;;77.95;22.73;;;;;;;38.44;33.03;96114.44;5095962;28;20019;-85
2023/06/26 09:27:57;;;;;;;56.20;16.30;;;;;;;38.46;30.92;96116.84;5102874;27;20027;-83
2023/06/26 09:30:23;;;;;;;60.78;18.08;;;;;;;38.97;31.33;96122.81;5078453;28;20024;-81
2023/06/26 09:32:54;;;;;;;33.70;8.40;;;;;;;38.74;28.88;96123.28;5098044;27;20476;-80
2023/06/26 09:35:19;;;;;;;9.23;6.18;;;;;;;38.70;30.80;96118.78;5088015;28;20023;-79
2023/06/26 09:37:45;;;;;;;22.40;7.95;;;;;;;39.41;31.44;96117.50;5099260;28;20032;-81
2023/06/26 09:40:11;;;;;;;7.93;5.80;;;;;;;38.48;29.73;96112.63;5080200;28;20031;-84
2023/06/26 09:42:37;;;;;;;9.48;5.63;;;;;;;38.96;30.82;96121.22;5094586;28;20032;-83
2023/06/26 09:45:02;;;;;;;7.25;5.05;;;;;;;39.56;28.18;96119.50;5087776;28;20865;-83
2023/06/26 09:47:31;;;;;;;7.63;5.72;;;;;;;38.86;29.38;96119.72;5094178;28;20019;-81
2023/06/26 09:49:58;;;;;;;10.70;5.53;;;;;;;39.92;28.15;96121.34;5096855;28;20023;-83
2023/06/26 09:52:26;;;;;;;7.03;5.40;;;;;;;38.90;28.27;96112.41;5098485;28;20042;-82
2023/06/26 09:55:07;;;;;;;7.25;5.30;;;;;;;38.51;28.22;96113.88;5121832;28;20020;-83
2023/06/26 09:57:34;;;;;;;6.32;5.28;;;;;;;38.59;27.91;96111.00;5131940;27;20076;-83
2023/06/26 10:00:02;;;;;;;6.85;5.75;;;;;;;39.44;27.37;96105.78;5086487;28;20039;-82
2023/06/26 10:02:38;;;;;;;6.75;5.20;;;;;;;39.84;25.61;96105.75;5116970;28;20036;-83
2023/06/26 10:05:03;;;;;;;7.25;6.28;;;;;;;39.44;25.82;96114.84;5082619;28;20047;-82
2023/06/26 10:07:29;;;;;;;8.60;5.78;;;;;;;39.11;26.07;96118.56;5077078;28;20840;-82
2023/06/26 10:09:56;;;;;;;7.47;5.13;;;;;;;38.83;27.14;96110.22;5088166;28;20128;-81
2023/06/26 10:12:28;;;;;;;8.18;4.80;;;;;;;39.35;26.67;96103.97;5077018;28;20102;-82
2023/06/26 10:14:56;;;;;;;5.78;5.07;;;;;;;39.39;26.50;96108.78;5094123;28;20424;-83
2023/06/26 10:17:24;;;;;;;12.60;11.30;;;;;;;39.44;26.52;96106.59;5073741;28;20089;-82
2023/06/26 10:19:52;;;;;;;7.07;5.13;;;;;;;39.74;25.33;96104.34;5071943;27;20089;-83
2023/06/26 10:22:21;;;;;;;7.45;5.07;;;;;;;39.97;25.04;96107.28;5081073;28;20023;-82
2023/06/26 10:24:52;;;;;;;5.38;4.55;;;;;;;40.19;24.64;96107.91;5083551;28;20541;-82
2023/06/26 10:27:20;;;;;;;7.60;5.70;;;;;;;40.18;24.52;96111.81;5085735;28;20073;-83
2023/06/26 10:30:09;;;;;;;6.60;5.20;;;;;;;39.17;25.31;96101.81;5092558;28;20038;-82
2023/06/26 10:32:36;;;;;;;6.60;4.97;;;;;;;40.10;24.99;96110.00;5085815;27;20091;-82
2023/06/26 10:35:03;;;;;;;7.43;5.25;;;;;;;39.37;26.19;96095.38;5078358;28;20366;-83
2023/06/26 10:37:45;;;;;;;7.05;5.18;;;;;;;40.05;25.69;96103.59;5091595;28;20026;-82
2023/06/26 10:40:11;;;;;;;;;;;;;;;40.86;24.26;96097.75;5081934;28;20119;-82
2023/06/26 10:42:38;;;;;;;6.53;5.05;;;;;;;40.09;24.52;96105.63;5074307;28;19960;-82
2023/06/26 10:45:19;;;;;;;6.45;5.20;;;;;;;40.29;25.72;96099.91;5092276;28;20012;-82
2023/06/26 10:47:52;;;;;;;7.33;5.50;;;;;;;41.00;24.50;96102.78;5077974;28;20031;-82
2023/06/26 10:50:19;;;;;;;8.18;4.43;;;;;;;40.62;24.51;96106.25;5102093;27;20593;-82
2023/06/26 10:52:44;;;;;;;7.35;5.40;;;;;;;39.49;25.15;96106.34;5099039;28;20023;-83
2023/06/26 10:55:10;;;;;;;6.85;5.28;;;;;;;39.87;24.74;96107.81;5078878;28;20031;-82
2023/06/26 10:57:38;;;;;;;6.72;5.65;;;;;;;39.80;25.64;96110.38;5078019;28;20077;-82
2023/06/26 11:00:11;;;;;;;7.57;5.90;;;;;;;40.22;25.29;96112.72;5096781;28;20020;-82
2023/06/26 11:02:50;;;;;;;10.70;5.22;;;;;;;40.00;25.26;96108.53;5073802;27;20605;-82
2023/06/26 11:05:32;;;;;;;10.85;5.95;;;;;;;37.69;27.18;96109.84;5110085;28;20106;-82
2023/06/26 11:08:05;;;;;;;;;;;;;;;39.04;26.27;96110.09;5097137;28;20095;-82
2023/06/26 11:10:47;;;;;;;;;;;;;;;38.92;26.42;96118.34;5077507;28;20361;-81
2023/06/26 11:13:14;;;;;;;7.35;5.57;;;;;;;39.43;26.30;96109.69;5079044;28;19908;-83
2023/06/26 11:15:42;;;;;;;8.00;5.70;;;;;;;40.12;25.87;96102.97;5076381;28;20037;-82
2023/06/26 11:18:08;;;;;;;10.38;6.15;;;;;;;39.86;26.30;96111.72;5075963;28;20012;-82
2023/06/26 11:20:33;;;;;;;10.70;5.50;;;;;;;39.69;26.18;96112.81;5096772;28;20026;-82
2023/06/26 11:22:59;;;;;;;10.25;5.70;;;;;;;39.47;27.03;96110.59;5105802;27;20100;-82
2023/06/26 11:25:24;;;;;;;8.85;5.93;;;;;;;39.36;25.87;96113.81;5089182;28;20019;-81
2023/06/26 11:27:53;;;;;;;8.05;5.93;;;;;;;40.22;26.15;96101.69;5089268;28;20077;-82
2023/06/26 11:30:26;;;;;;;6.70;5.57;;;;;;;40.62;26.66;96097.97;5094726;28;20386;-83
2023/06/26 11:32:51;;;;;;;8.68;5.53;;;;;;;39.69;26.86;96107.28;5117909;27;20038;-82
2023/06/26 11:35:29;;;;;;;6.93;5.88;;;;;;;39.30;26.79;96100.66;5104081;28;20116;-83